Time;durP1;ratioP1;P1;durP2;ratioP2;P2;SDS_P1;SDS_P2;PMS_P1;PMS_P2;Temp;Humidity;BMP_temperature;BMP_pressure;BME280_temperature;BME280_humidity;BME280_pressure;Samples;Min_cycle;Max_cycle;Signal;HPM_P1;HPM_P2
2022/11/01 00:00:06;;;;;;;26.40;16.38;;;;;;;12.31;100.00;101002.28;5061817;28;20264;-84
2022/11/01 00:02:39;;;;;;;31.70;16.52;;;;;;;12.29;100.00;100997.84;5070232;28;20048;-84
2022/11/01 00:05:08;;;;;;;29.27;16.42;;;;;;;12.31;100.00;100986.41;5092833;28;20051;-85
2022/11/01 00:07:37;;;;;;;28.85;15.95;;;;;;;12.33;100.00;100989.94;5068031;28;20408;-85
2022/11/01 00:10:06;;;;;;;25.40;16.13;;;;;;;12.34;100.00;100981.97;5075429;27;20047;-85
2022/11/01 00:12:34;;;;;;;26.10;15.20;;;;;;;12.34;100.00;100979.34;5062634;28;20059;-85
2022/11/01 00:15:04;;;;;;;22.60;13.75;;;;;;;12.38;100.00;100998.72;5061696;28;20507;-85
2022/11/01 00:17:33;;;;;;;26.23;16.23;;;;;;;12.39;100.00;100982.84;5059956;28;20055;-84
2022/11/01 00:20:01;;;;;;;27.05;15.43;;;;;;;12.41;100.00;100980.22;5089671;28;20043;-84
2022/11/01 00:22:29;;;;;;;28.25;14.07;;;;;;;12.42;100.00;100979.31;5063514;28;20085;-84
2022/11/01 00:24:58;;;;;;;28.48;14.50;;;;;;;12.43;100.00;100976.69;5080298;28;20039;-85
2022/11/01 00:27:28;;;;;;;20.88;13.77;;;;;;;12.45;100.00;100985.47;5093309;28;20047;-85
2022/11/01 00:29:57;;;;;;;26.45;14.40;;;;;;;12.45;100.00;100980.19;5044788;28;20047;-85
2022/11/01 00:32:25;;;;;;;20.95;14.32;;;;;;;12.45;100.00;100980.19;5061520;28;20224;-84
2022/11/01 00:34:54;;;;;;;21.90;13.50;;;;;;;12.44;100.00;100973.16;5072141;28;20040;-85
2022/11/01 00:37:24;;;;;;;25.77;14.70;;;;;;;12.45;100.00;100977.56;5078056;28;20352;-84
2022/11/01 00:39:54;;;;;;;25.85;14.40;;;;;;;12.44;100.00;100967.88;5102492;28;20036;-85
2022/11/01 00:42:23;;;;;;;28.77;13.95;;;;;;;12.44;100.00;100965.25;5077252;28;20055;-85
2022/11/01 00:44:51;;;;;;;20.15;13.30;;;;;;;12.44;100.00;100967.00;5040900;28;20052;-85
2022/11/01 00:47:19;;;;;;;22.85;14.10;;;;;;;12.42;100.00;100953.78;5064841;28;20063;-85
2022/11/01 00:49:48;;;;;;;22.33;14.07;;;;;;;12.42;100.00;100940.59;5091035;28;20055;-84
2022/11/01 00:52:16;;;;;;;24.88;13.38;;;;;;;12.42;100.00;100948.50;5091541;28;20063;-84
2022/11/01 00:54:45;;;;;;;22.05;12.88;;;;;;;12.41;100.00;100936.16;5113592;28;20050;-85
2022/11/01 00:57:13;;;;;;;21.63;12.98;;;;;;;12.41;100.00;100935.28;5072117;27;20051;-85
2022/11/01 00:59:41;;;;;;;19.67;13.18;;;;;;;12.41;100.00;100930.88;5091920;28;20036;-84
2022/11/01 01:02:10;;;;;;;25.00;12.95;;;;;;;12.40;100.00;100930.88;5058121;28;20109;-85
2022/11/01 01:04:42;;;;;;;21.45;13.27;;;;;;;12.40;100.00;100926.50;5072818;28;20042;-84
2022/11/01 01:07:10;;;;;;;22.13;12.38;;;;;;;12.41;100.00;100930.00;5084157;28;20024;-85
2022/11/01 01:09:40;;;;;;;27.02;12.93;;;;;;;12.41;100.00;100922.94;5083837;28;20036;-85
2022/11/01 01:12:08;;;;;;;26.77;13.38;;;;;;;12.42;100.00;100926.47;5072376;28;20043;-86
2022/11/01 01:14:38;;;;;;;22.70;12.52;;;;;;;12.41;100.00;100922.94;5037537;28;20531;-84
2022/11/01 01:17:07;;;;;;;24.48;12.55;;;;;;;12.43;100.00;100929.09;5058948;28;20484;-85
2022/11/01 01:19:35;;;;;;;18.63;12.93;;;;;;;12.42;100.00;100911.50;5092381;28;20050;-84
2022/11/01 01:22:04;;;;;;;24.17;12.00;;;;;;;12.43;100.00;100917.66;5069365;28;20035;-85
2022/11/01 01:24:33;;;;;;;23.00;13.15;;;;;;;12.43;100.00;100913.25;5106743;28;20497;-84
2022/11/01 01:27:02;;;;;;;23.27;12.13;;;;;;;12.44;100.00;100915.03;5072994;28;20048;-85
2022/11/01 01:29:30;;;;;;;19.38;11.25;;;;;;;12.46;100.00;100915.03;5076641;28;20031;-84
2022/11/01 01:31:58;;;;;;;19.98;11.90;;;;;;;12.47;100.00;100912.34;5086130;28;20052;-85
2022/11/01 01:34:28;;;;;;;21.17;12.25;;;;;;;12.48;100.00;100906.19;5087485;28;20059;-85
2022/11/01 01:36:56;;;;;;;20.92;11.18;;;;;;;12.51;100.00;100910.56;5062604;28;20265;-84
2022/11/01 01:39:24;;;;;;;18.95;11.20;;;;;;;12.51;100.00;100907.94;5099090;28;20051;-85
2022/11/01 01:41:56;;;;;;;15.63;10.90;;;;;;;12.54;100.00;100912.34;5076034;28;20280;-85
2022/11/01 01:45:15;;;;;;;17.10;10.93;;;;;;;12.56;100.00;100903.50;5065790;28;20047;-85
2022/11/01 01:47:47;;;;;;;20.83;10.77;;;;;;;12.59;100.00;100897.31;4976702;28;20054;-84
2022/11/01 01:50:22;;;;;;;19.60;10.57;;;;;;;12.60;100.00;100889.41;5018532;28;20053;-85
2022/11/01 01:53:12;;;;;;;17.45;11.07;;;;;;;12.63;100.00;100891.16;5003483;28;20256;-84
2022/11/01 01:55:47;;;;;;;22.13;11.73;;;;;;;12.64;100.00;100890.25;5045883;28;20036;-85
2022/11/01 01:58:19;;;;;;;14.02;10.52;;;;;;;12.66;100.00;100878.81;5093521;28;20282;-84
2022/11/01 02:00:48;;;;;;;18.70;10.50;;;;;;;12.68;100.00;100877.03;5067110;28;20047;-84
2022/11/01 02:03:19;;;;;;;15.05;9.10;;;;;;;12.71;100.00;100873.50;5083038;28;20054;-84
2022/11/01 02:05:56;;;;;;;15.93;10.02;;;;;;;12.73;100.00;100865.56;5069382;28;20256;-85
2022/11/01 02:08:29;;;;;;;17.65;9.70;;;;;;;12.75;100.00;100866.44;5087182;28;20042;-85
2022/11/01 02:11:01;;;;;;;22.83;11.10;;;;;;;12.75;100.00;100864.66;5095499;28;20039;-85
2022/11/01 02:13:30;;;;;;;21.75;11.32;;;;;;;12.77;100.00;100849.66;5069528;28;20048;-85
2022/11/01 02:16:24;;;;;;;20.33;9.93;;;;;;;12.78;100.00;100854.06;5034922;28;20146;-84
2022/11/01 02:18:59;;;;;;;19.45;10.18;;;;;;;12.80;100.00;100843.50;5095542;28;20024;-85
2022/11/01 02:22:23;;;;;;;21.50;9.93;;;;;;;12.83;100.00;100832.88;5076427;28;20040;-85
2022/11/01 02:25:19;;;;;;;14.98;9.18;;;;;;;12.85;100.00;100825.81;5003357;28;20084;-84
2022/11/01 02:28:03;;;;;;;14.68;8.48;;;;;;;12.85;100.00;100821.41;5079546;28;20052;-84
2022/11/01 02:31:22;;;;;;;15.88;8.13;;;;;;;12.88;100.00;100812.56;5111069;28;20040;-85
2022/11/01 02:34:37;;;;;;;22.90;8.73;;;;;;;12.91;100.00;100806.38;5057737;28;20051;-85
2022/11/01 02:37:23;;;;;;;15.70;8.73;;;;;;;12.93;100.00;100805.50;5040995;28;20047;-85
2022/11/01 02:39:58;;;;;;;12.98;7.78;;;;;;;12.95;100.00;100800.16;5089792;28;20047;-85
2022/11/01 02:42:32;;;;;;;11.85;7.72;;;;;;;12.97;100.00;100803.72;5098616;28;20016;-86
2022/11/01 02:45:06;;;;;;;18.20;7.97;;;;;;;12.99;100.00;100792.22;5092394;28;20048;-85
2022/11/01 02:47:37;;;;;;;14.95;7.82;;;;;;;13.01;100.00;100773.69;5060843;28;20043;-85
2022/11/01 02:50:09;;;;;;;14.43;8.25;;;;;;;13.02;100.00;100776.34;5081541;28;20056;-85
2022/11/01 02:52:39;;;;;;;19.00;7.43;;;;;;;13.05;100.00;100783.34;5068071;28;20052;-85
2022/11/01 02:55:29;;;;;;;18.52;8.20;;;;;;;13.07;100.00;100778.94;5093611;28;20036;-86
2022/11/01 02:58:05;;;;;;;12.60;8.05;;;;;;;13.09;100.00;100781.56;5092341;28;20039;-84
2022/11/01 03:00:35;;;;;;;14.65;8.45;;;;;;;13.10;100.00;100784.19;5078941;28;20036;-86
2022/11/01 03:03:11;;;;;;;14.95;8.70;;;;;;;13.10;100.00;100776.25;5048098;28;20058;-85
2022/11/01 03:06:07;;;;;;;19.73;7.95;;;;;;;13.12;100.00;100782.41;5099333;28;20048;-84
2022/11/01 03:08:39;;;;;;;13.40;7.68;;;;;;;13.14;100.00;100775.34;5072024;28;20039;-85
2022/11/01 03:11:10;;;;;;;11.82;6.75;;;;;;;13.16;100.00;100773.56;5089905;28;20393;-85
2022/11/01 03:14:20;;;;;;;13.45;7.40;;;;;;;13.16;100.00;100765.63;5088698;28;20536;-85
2022/11/01 03:17:06;;;;;;;10.50;6.45;;;;;;;13.18;100.00;100768.25;5052511;28;20173;-85
2022/11/01 03:20:17;;;;;;;17.48;8.15;;;;;;;13.19;100.00;100770.88;5065677;28;20055;-85
2022/11/01 03:22:55;;;;;;;10.80;7.00;;;;;;;13.19;100.00;100784.09;5054114;28;20340;-85
2022/11/01 03:25:41;;;;;;;14.75;7.70;;;;;;;13.20;100.00;100772.63;5085972;28;20047;-85
2022/11/01 03:28:19;;;;;;;13.52;7.68;;;;;;;13.22;100.00;100777.91;5071280;28;20051;-85
2022/11/01 03:30:58;;;;;;;14.00;7.13;;;;;;;13.23;100.00;100777.00;5093517;28;20149;-85
2022/11/01 03:33:29;;;;;;;15.45;7.93;;;;;;;13.23;100.00;100769.97;5059416;28;20039;-85
2022/11/01 03:36:02;;;;;;;17.10;7.78;;;;;;;13.25;100.00;100767.28;5111356;28;20048;-85
2022/11/01 03:38:38;;;;;;;16.88;8.02;;;;;;;13.26;100.00;100764.63;5079484;28;20032;-85
2022/11/01 03:41:12;;;;;;;12.15;6.68;;;;;;;13.28;100.00;100761.97;5099872;28;20058;-85
2022/11/01 03:43:41;;;;;;;11.55;6.50;;;;;;;13.30;100.00;100777.84;5082385;28;20260;-85
2022/11/01 03:46:09;;;;;;;16.48;6.97;;;;;;;13.31;100.00;100763.75;5068335;28;20047;-84
2022/11/01 03:48:39;;;;;;;15.63;7.68;;;;;;;13.30;100.00;100754.03;5094905;28;20548;-85
2022/11/01 03:51:07;;;;;;;13.27;6.30;;;;;;;13.31;100.00;100763.75;5056724;28;20043;-85
2022/11/01 03:53:36;;;;;;;10.10;6.53;;;;;;;13.30;100.00;100754.03;5083346;28;20389;-86
2022/11/01 03:56:05;;;;;;;12.85;6.60;;;;;;;13.31;100.00;100766.38;5086638;28;20036;-85
2022/11/01 03:58:43;;;;;;;18.05;7.03;;;;;;;13.31;100.00;100771.69;5038052;28;20048;-85
2022/11/01 04:01:15;;;;;;;12.80;7.25;;;;;;;13.31;100.00;100766.38;5100810;28;20036;-85
2022/11/01 04:03:44;;;;;;;16.13;6.90;;;;;;;13.31;100.00;100756.69;5093676;28;20521;-85
2022/11/01 04:06:12;;;;;;;12.82;6.57;;;;;;;13.33;100.00;100762.00;5056473;28;20063;-85
2022/11/01 04:08:41;;;;;;;9.73;6.43;;;;;;;13.35;100.00;100757.56;5091246;28;20048;-85
2022/11/01 04:11:09;;;;;;;13.02;6.53;;;;;;;13.36;100.00;100754.88;5063547;28;20397;-85
2022/11/01 04:13:37;;;;;;;16.98;6.80;;;;;;;13.37;100.00;100763.72;5075638;28;20262;-86
2022/11/01 04:21:44;;;;;;;16.20;6.45;;;;;;;13.39;100.00;100761.91;5068399;28;20126;-85
2022/11/01 04:24:19;;;;;;;14.18;6.40;;;;;;;13.39;100.00;100762.78;5089635;28;20031;-85
2022/11/01 04:26:48;;;;;;;8.85;6.18;;;;;;;13.41;100.00;100762.78;5076078;28;20079;-85
2022/11/01 04:29:16;;;;;;;14.70;6.93;;;;;;;13.42;100.00;100761.88;5080604;28;20055;-84
2022/11/01 04:31:45;;;;;;;9.73;6.03;;;;;;;13.44;100.00;100768.06;5077199;28;20172;-85
2022/11/01 04:34:40;;;;;;;10.52;5.63;;;;;;;13.47;100.00;100759.19;5062730;28;20069;-85
2022/11/01 04:37:08;;;;;;;11.63;5.95;;;;;;;13.48;100.00;100759.19;5094291;28;20047;-85
2022/11/01 04:39:36;;;;;;;9.95;5.82;;;;;;;13.48;100.00;100768.88;5103526;28;20059;-85
2022/11/01 04:42:05;;;;;;;12.35;6.38;;;;;;;13.49;100.00;100778.59;5088520;28;20043;-85
2022/11/01 04:44:33;;;;;;;8.60;5.45;;;;;;;13.49;100.00;100770.66;5089835;28;20044;-85
2022/11/01 04:47:02;;;;;;;13.20;6.50;;;;;;;13.48;100.00;100761.84;5072624;28;20051;-85
2022/11/01 04:49:31;;;;;;;10.70;5.78;;;;;;;13.47;100.00;100769.78;5092596;28;20038;-86
2022/11/01 04:51:59;;;;;;;12.77;6.40;;;;;;;13.47;100.00;100768.00;5091822;28;20036;-85
2022/11/01 04:54:32;;;;;;;7.35;5.88;;;;;;;13.49;100.00;100760.06;5079176;28;20043;-86
2022/11/01 04:57:01;;;;;;;7.75;5.63;;;;;;;13.50;100.00;100759.19;5110643;28;20048;-86
2022/11/01 04:59:29;;;;;;;9.02;5.75;;;;;;;13.49;100.00;100760.91;5091320;28;20043;-85
2022/11/01 05:01:58;;;;;;;8.63;5.40;;;;;;;13.48;100.00;100756.53;5069953;28;20043;-85
2022/11/01 05:04:26;;;;;;;11.40;6.30;;;;;;;13.47;100.00;100760.06;5041959;28;20052;-85
2022/11/01 05:06:57;;;;;;;13.45;5.72;;;;;;;13.47;100.00;100765.34;5081524;28;20055;-85
2022/11/01 05:09:26;;;;;;;9.98;5.90;;;;;;;13.47;100.00;100761.84;5082072;28;20055;-85
2022/11/01 05:11:54;;;;;;;11.02;6.97;;;;;;;13.48;100.00;100758.28;5067803;28;20052;-85
2022/11/01 05:14:25;;;;;;;11.20;5.70;;;;;;;13.49;100.00;100766.22;5082812;28;20035;-85
2022/11/01 05:16:57;;;;;;;13.40;5.63;;;;;;;13.50;100.00;100761.81;5062507;28;20059;-85
2022/11/01 05:19:25;;;;;;;8.85;5.32;;;;;;;13.53;100.00;100765.28;5104482;27;20526;-84
2022/11/01 05:21:54;;;;;;;16.52;5.72;;;;;;;13.54;100.00;100763.53;5053148;27;20049;-85
2022/11/01 05:24:22;;;;;;;12.10;5.70;;;;;;;13.56;100.00;100767.91;5039166;28;20036;-84
2022/11/01 05:26:50;;;;;;;7.93;5.32;;;;;;;13.57;100.00;100769.69;5058931;28;20401;-85
2022/11/01 05:29:19;;;;;;;18.40;8.48;;;;;;;13.59;100.00;100773.19;5073742;28;20043;-84
2022/11/01 05:32:00;;;;;;;14.07;5.40;;;;;;;13.59;100.00;100770.53;5089437;28;20130;-85
2022/11/01 05:34:29;;;;;;;17.35;6.57;;;;;;;13.59;100.00;100775.84;5087894;28;20044;-84
2022/11/01 05:36:57;;;;;;;7.90;5.05;;;;;;;13.59;100.00;100782.88;5086426;28;20063;-85
2022/11/01 05:39:25;;;;;;;13.35;5.75;;;;;;;13.58;100.00;100779.38;5028503;28;20051;-85
2022/11/01 05:41:54;;;;;;;9.45;5.35;;;;;;;13.57;100.00;100772.34;5103136;28;20154;-86
2022/11/01 05:44:31;;;;;;;13.48;5.20;;;;;;;13.57;100.00;100772.34;5074041;28;20051;-85
2022/11/01 05:47:05;;;;;;;9.82;5.78;;;;;;;13.57;100.00;100774.97;5063521;28;20051;-85
2022/11/01 05:49:33;;;;;;;10.00;5.47;;;;;;;13.58;100.00;100781.16;5055041;28;20040;-85
2022/11/01 05:52:01;;;;;;;9.40;5.45;;;;;;;13.56;100.00;100786.44;5068797;28;20031;-84
2022/11/01 05:54:30;;;;;;;6.15;5.00;;;;;;;13.55;100.00;100797.03;5050246;28;20042;-84
2022/11/01 05:56:59;;;;;;;12.38;5.40;;;;;;;13.54;100.00;100796.19;5046208;28;20071;-85
2022/11/01 05:59:27;;;;;;;10.18;5.25;;;;;;;13.54;100.00;100801.47;5089571;28;20039;-85
2022/11/01 06:01:56;;;;;;;8.52;4.55;;;;;;;13.57;100.00;100817.34;5074391;28;20257;-84
2022/11/01 06:04:24;;;;;;;7.85;4.90;;;;;;;13.61;100.00;100808.47;5102000;28;20032;-84
2022/11/01 06:06:53;;;;;;;7.78;4.93;;;;;;;13.64;100.00;100808.41;5051996;28;20055;-85
2022/11/01 06:09:21;;;;;;;10.27;4.43;;;;;;;13.72;100.00;100816.28;5065754;28;20024;-85
2022/11/01 06:11:49;;;;;;;10.27;4.82;;;;;;;13.76;100.00;100819.78;5067627;28;20047;-87
2022/11/01 06:14:18;;;;;;;9.20;4.78;;;;;;;13.79;100.00;100838.28;5072234;28;20040;-86
2022/11/01 06:16:47;;;;;;;13.27;5.85;;;;;;;13.82;100.00;100830.34;5087482;28;20047;-86
2022/11/01 06:19:15;;;;;;;8.27;4.65;;;;;;;13.83;100.00;100835.59;5079462;28;20036;-85
2022/11/01 06:21:44;;;;;;;7.63;5.28;;;;;;;13.85;100.00;100843.53;5066430;28;20044;-86
2022/11/01 06:24:12;;;;;;;8.95;4.70;;;;;;;13.88;100.00;100848.81;5066300;28;20316;-86
2022/11/01 06:26:41;;;;;;;8.50;3.63;;;;;;;13.92;100.00;100870.84;5052602;28;20044;-86
2022/11/01 06:29:09;;;;;;;7.22;2.13;;;;;;;13.94;100.00;100861.09;5066644;28;20047;-84
2022/11/01 06:31:38;;;;;;;3.83;1.27;;;;;;;13.96;100.00;100860.19;5050932;28;20039;-86
2022/11/01 06:34:06;;;;;;;8.40;1.60;;;;;;;13.98;100.00;100871.63;5089595;28;20416;-84
2022/11/01 06:36:35;;;;;;;4.68;1.40;;;;;;;13.97;100.00;100877.84;5112053;28;20047;-86
2022/11/01 06:39:04;;;;;;;6.80;1.52;;;;;;;13.92;100.00;100886.75;5094555;28;20042;-85
2022/11/01 06:41:32;;;;;;;5.82;1.40;;;;;;;13.87;100.00;100878.81;5062055;28;20366;-85
2022/11/01 06:44:00;;;;;;;3.65;1.60;;;;;;;13.84;100.00;100886.81;5055553;28;20039;-85
2022/11/01 06:46:29;;;;;;;3.88;1.58;;;;;;;13.81;100.00;100885.06;5102102;28;20043;-86
2022/11/01 06:48:57;;;;;;;5.28;1.25;;;;;;;13.78;100.00;100885.09;5073883;28;20276;-85
2022/11/01 06:51:26;;;;;;;5.78;1.70;;;;;;;13.74;100.00;100896.63;5088349;28;20351;-85
2022/11/01 06:53:54;;;;;;;1.30;1.00;;;;;;;13.68;100.00;100888.72;5082312;28;20039;-85
2022/11/01 06:56:23;;;;;;;5.30;1.00;;;;;;;13.59;100.00;100886.13;5065373;28;20027;-85
2022/11/01 06:58:51;;;;;;;4.30;1.25;;;;;;;13.54;100.00;100901.22;5099448;28;20276;-84
2022/11/01 07:01:20;;;;;;;2.85;0.82;;;;;;;13.49;100.00;100903.88;5051415;28;20428;-84
2022/11/01 07:03:50;;;;;;;3.73;1.00;;;;;;;13.48;100.00;100909.16;5082833;28;20324;-84
2022/11/01 07:06:20;;;;;;;3.17;1.03;;;;;;;13.42;100.00;100912.75;5102552;28;20409;-84
2022/11/01 07:08:50;;;;;;;4.72;1.40;;;;;;;13.36;100.00;100913.66;5092202;28;20358;-84
2022/11/01 07:11:18;;;;;;;1.75;0.75;;;;;;;13.32;100.00;100905.78;5075691;28;20044;-85
2022/11/01 07:13:46;;;;;;;5.32;1.20;;;;;;;13.28;100.00;100923.41;5067102;28;20044;-85
2022/11/01 07:16:15;;;;;;;4.22;1.02;;;;;;;13.23;100.00;100933.13;5058639;28;20424;-84
2022/11/01 07:18:44;;;;;;;6.93;1.40;;;;;;;13.20;100.00;100930.53;5067194;28;20051;-85
2022/11/01 07:21:13;;;;;;;3.63;1.00;;;;;;;13.17;100.00;100936.69;5058959;28;20393;-85
2022/11/01 07:23:41;;;;;;;10.07;1.88;;;;;;;13.13;100.00;100942.91;5089002;28;20145;-86
2022/11/01 07:26:09;;;;;;;5.35;1.25;;;;;;;13.13;100.00;100947.31;5100129;28;20504;-86
2022/11/01 07:28:38;;;;;;;6.35;1.50;;;;;;;13.09;100.00;100938.53;5063541;28;20040;-85
2022/11/01 07:31:07;;;;;;;5.57;1.40;;;;;;;13.05;100.00;100952.66;5090677;28;20051;-84
2022/11/01 07:33:35;;;;;;;6.30;1.60;;;;;;;13.00;100.00;100963.25;5109228;28;20046;-85
2022/11/01 07:36:04;;;;;;;8.13;1.70;;;;;;;13.01;100.00;100953.56;5079963;28;20392;-85
2022/11/01 07:38:33;;;;;;;6.10;1.42;;;;;;;12.99;100.00;100966.78;5088785;28;20048;-84
2022/11/01 07:41:03;;;;;;;5.55;1.30;;;;;;;13.01;100.00;100961.50;5063286;28;20048;-83
2022/11/01 07:43:34;;;;;;;10.55;2.03;;;;;;;13.06;100.00;100972.91;5051718;28;20046;-84
2022/11/01 07:46:04;;;;;;;6.65;1.50;;;;;;;13.11;100.00;100979.06;5064426;28;20496;-84
2022/11/01 07:48:35;;;;;;;11.45;2.13;;;;;;;13.15;100.00;100964.94;5064693;28;20044;-84
2022/11/01 07:51:05;;;;;;;8.80;1.55;;;;;;;13.20;100.00;100955.22;5095437;28;20056;-84
2022/11/01 07:53:33;;;;;;;8.40;1.50;;;;;;;13.22;100.00;100956.06;5100581;28;20052;-85
2022/11/01 07:56:02;;;;;;;9.32;2.25;;;;;;;13.24;100.00;100945.50;5044195;28;20040;-85
2022/11/01 07:58:32;;;;;;;20.17;1.75;;;;;;;13.26;100.00;100949.88;5093128;28;20048;-85
2022/11/01 08:01:02;;;;;;;10.57;1.90;;;;;;;13.29;100.00;100961.31;5079633;28;20047;-85
2022/11/01 08:03:33;;;;;;;8.10;1.60;;;;;;;13.33;100.00;100956.06;5061023;28;20048;-85
2022/11/01 08:06:02;;;;;;;6.45;1.67;;;;;;;13.40;100.00;100964.81;5074005;28;20040;-85
2022/11/01 08:08:30;;;;;;;7.70;1.63;;;;;;;13.44;100.00;100964.81;5054549;28;20052;-86
2022/11/01 08:11:00;;;;;;;9.00;2.03;;;;;;;13.45;100.00;100961.25;5087326;28;20252;-83
2022/11/01 08:13:28;;;;;;;10.67;1.63;;;;;;;13.46;100.00;100975.38;5092179;28;20051;-86
2022/11/01 08:16:00;;;;;;;6.75;1.50;;;;;;;13.47;100.00;100974.47;5063918;28;20606;-83
2022/11/01 08:18:28;;;;;;;6.38;1.80;;;;;;;13.48;100.00;100988.59;5097410;28;20040;-84
2022/11/01 08:20:58;;;;;;;9.48;1.45;;;;;;;13.54;100.00;100993.88;5063473;28;20162;-84
2022/11/01 08:23:27;;;;;;;4.70;1.77;;;;;;;13.63;100.00;100985.88;5083938;28;20040;-84
2022/11/01 08:25:57;;;;;;;6.85;1.58;;;;;;;13.76;100.00;100986.63;5079949;28;20221;-84
2022/11/01 08:28:28;;;;;;;10.50;1.67;;;;;;;13.84;100.00;100988.34;5098402;28;20040;-84
2022/11/01 08:30:56;;;;;;;5.97;1.80;;;;;;;13.89;100.00;100992.72;5062954;28;20044;-83
2022/11/01 08:33:25;;;;;;;6.72;1.63;;;;;;;13.92;100.00;100988.28;5061925;28;20044;-84
2022/11/01 08:35:53;;;;;;;11.48;1.55;;;;;;;14.04;100.00;100997.88;5064772;27;20055;-84
2022/11/01 08:38:22;;;;;;;5.05;1.40;;;;;;;14.15;100.00;100997.78;5112156;28;20048;-84
2022/11/01 08:40:50;;;;;;;2.25;0.93;;;;;;;14.18;100.00;101011.03;5087170;28;20047;-83
2022/11/01 08:43:19;;;;;;;8.60;1.67;;;;;;;14.17;100.00;101007.47;5073760;28;20051;-83
2022/11/01 08:45:48;;;;;;;8.38;2.10;;;;;;;14.17;100.00;101017.19;5075042;28;20031;-85
2022/11/01 08:48:16;;;;;;;13.18;1.90;;;;;;;14.14;100.00;101010.16;5064230;28;20040;-86
2022/11/01 08:50:44;;;;;;;7.25;1.83;;;;;;;14.12;100.00;101032.25;5062829;28;20051;-84
2022/11/01 08:53:13;;;;;;;9.88;2.00;;;;;;;14.09;100.00;101027.88;5088671;28;20497;-83
2022/11/01 08:55:44;;;;;;;10.32;2.08;;;;;;;14.09;100.00;101013.75;5095983;28;20048;-85
2022/11/01 08:58:12;;;;;;;9.07;2.40;;;;;;;14.06;100.00;101029.66;5080288;28;20036;-85
2022/11/01 09:00:42;;;;;;;11.40;3.05;;;;;;;13.98;100.00;101025.31;5025764;28;22286;-86
2022/11/01 09:03:11;;;;;;;11.37;2.67;;;;;;;13.93;100.00;101024.47;5082818;28;20059;-84
2022/11/01 09:05:39;;;;;;;12.32;2.40;;;;;;;13.87;100.00;101016.56;5073159;28;20293;-85
2022/11/01 09:08:07;;;;;;;10.65;2.17;;;;;;;13.81;100.00;101027.22;5061787;28;20042;-84
2022/11/01 09:10:36;;;;;;;17.38;3.10;;;;;;;13.78;100.00;101043.09;5063951;28;20035;-85
2022/11/01 09:13:04;;;;;;;13.68;2.55;;;;;;;13.76;100.00;101044.91;5107668;28;20042;-84
2022/11/01 09:15:33;;;;;;;10.95;2.60;;;;;;;13.73;100.00;101031.69;5061156;28;20047;-85
2022/11/01 09:18:06;;;;;;;16.23;3.08;;;;;;;13.78;100.00;101040.47;5069367;28;20096;-84
2022/11/01 09:20:34;;;;;;;16.83;3.33;;;;;;;13.81;100.00;101033.38;5069747;28;20047;-85
2022/11/01 09:23:03;;;;;;;18.13;3.08;;;;;;;13.83;100.00;101036.88;5055466;28;20038;-84
2022/11/01 09:25:34;;;;;;;11.40;2.53;;;;;;;13.85;100.00;101052.78;5087225;28;20050;-84
2022/11/01 09:28:02;;;;;;;13.40;2.50;;;;;;;13.92;100.00;101051.84;5094311;28;20040;-84
2022/11/01 09:30:31;;;;;;;10.32;2.65;;;;;;;14.02;100.00;101045.56;5046654;28;20020;-85
2022/11/01 09:33:03;;;;;;;11.88;2.92;;;;;;;14.13;100.00;101049.94;5088866;28;20040;-84
2022/11/01 09:35:33;;;;;;;11.88;2.80;;;;;;;14.20;100.00;101049.88;5087253;28;20032;-84
2022/11/01 09:38:02;;;;;;;12.80;2.40;;;;;;;14.27;100.00;101048.03;5087148;28;20052;-84
2022/11/01 09:40:39;;;;;;;18.15;3.17;;;;;;;14.32;100.00;101066.56;5058301;28;20063;-85
2022/11/01 09:43:12;;;;;;;19.27;3.35;;;;;;;14.34;100.00;101054.16;5077919;28;20404;-84
2022/11/01 09:45:41;;;;;;;18.85;2.60;;;;;;;14.35;100.00;101059.47;5068671;28;20209;-83
2022/11/01 09:48:13;;;;;;;11.80;2.47;;;;;;;14.35;100.00;101059.47;5056909;28;20039;-83
2022/11/01 09:50:44;;;;;;;15.35;3.40;;;;;;;14.36;100.00;101073.59;5094969;28;20047;-84
2022/11/01 09:53:20;;;;;;;12.38;3.33;;;;;;;14.36;100.00;101074.44;5061931;28;20408;-83
2022/11/01 09:56:04;;;;;;;13.57;2.67;;;;;;;14.35;100.00;101083.31;5061353;28;20054;-82
2022/11/01 09:58:51;;;;;;;16.15;2.60;;;;;;;14.37;100.00;101078.00;5060074;28;20048;-83
2022/11/01 10:01:37;;;;;;;10.27;2.38;;;;;;;14.39;100.00;101093.00;5067558;27;20048;-82
2022/11/01 10:04:46;;;;;;;16.48;2.40;;;;;;;14.44;100.00;101095.59;5029399;28;20040;-84
2022/11/01 10:07:21;;;;;;;14.80;3.17;;;;;;;14.52;100.00;101077.88;5074563;28;20040;-82
2022/11/01 10:09:49;;;;;;;12.50;3.10;;;;;;;14.62;100.00;101087.50;5077074;28;20044;-84
2022/11/01 10:12:47;;;;;;;13.13;3.03;;;;;;;14.76;100.00;101107.72;5067568;28;20032;-83
2022/11/01 10:15:34;;;;;;;15.45;2.85;;;;;;;14.85;100.00;101098.78;5043443;28;20169;-83
2022/11/01 10:18:24;;;;;;;12.57;2.58;;;;;;;14.94;100.00;101104.00;5035383;28;20043;-84
2022/11/01 10:21:01;;;;;;;11.25;2.75;;;;;;;15.02;100.00;101107.44;5066480;28;20047;-84
2022/11/01 10:23:56;;;;;;;11.98;2.88;;;;;;;15.05;100.00;101106.53;5094498;28;20052;-83
2022/11/01 10:26:34;;;;;;;12.70;2.90;;;;;;;15.05;100.00;101112.72;5061117;28;20035;-84
2022/11/01 10:29:13;;;;;;;12.80;2.80;;;;;;;15.07;100.00;101120.69;5057868;28;20055;-83
2022/11/01 10:31:51;;;;;;;10.98;2.20;;;;;;;15.08;100.00;101133.03;5074355;28;20056;-84
2022/11/01 10:34:26;;;;;;;16.27;3.10;;;;;;;15.06;100.00;101143.66;5054156;28;20166;-84
2022/11/01 10:37:22;;;;;;;17.08;3.55;;;;;;;15.06;100.00;101124.22;5062865;28;20047;-84
2022/11/01 10:40:22;;;;;;;13.20;2.65;;;;;;;15.02;100.00;101148.13;5087165;28;20044;-83
2022/11/01 10:42:52;;;;;;;10.55;2.13;;;;;;;14.98;100.00;101146.41;5071935;28;20055;-84
2022/11/01 10:45:22;;;;;;;16.05;2.95;;;;;;;14.97;100.00;101152.63;5046648;28;20425;-83
2022/11/01 10:47:55;;;;;;;19.10;4.18;;;;;;;14.92;100.00;101159.72;5048983;28;20044;-83
2022/11/01 10:50:27;;;;;;;13.32;2.63;;;;;;;14.91;100.00;101160.63;5074541;28;20047;-83
2022/11/01 10:53:05;;;;;;;11.88;3.33;;;;;;;14.91;100.00;101165.06;5066730;28;20041;-84
2022/11/01 10:55:40;;;;;;;10.88;3.03;;;;;;;14.94;100.00;101160.59;5069895;28;20040;-83
2022/11/01 10:58:31;;;;;;;13.98;2.85;;;;;;;14.99;100.00;101168.53;5080308;28;20327;-83
2022/11/01 11:01:02;;;;;;;11.68;3.10;;;;;;;15.04;100.00;101168.47;5058309;28;20025;-84
2022/11/01 11:03:30;;;;;;;;;;;;;;;15.06;100.00;101178.16;5054127;28;20048;-83
2022/11/01 11:06:05;;;;;;;17.65;3.67;;;;;;;15.10;100.00;101176.34;5052358;28;19920;-85
2022/11/01 11:08:37;;;;;;;16.52;2.92;;;;;;;15.09;100.00;101172.84;5078616;28;20028;-83
2022/11/01 11:11:13;;;;;;;11.48;2.60;;;;;;;15.04;100.00;101187.91;5081682;28;20036;-84
2022/11/01 11:13:46;;;;;;;16.98;3.75;;;;;;;14.97;100.00;101176.50;5045810;28;20055;-83
2022/11/01 11:16:32;;;;;;;16.50;3.70;;;;;;;14.97;100.00;101188.88;5080425;28;20032;-83
2022/11/01 11:19:06;;;;;;;10.75;2.63;;;;;;;14.95;100.00;101180.03;5053763;28;20048;-83
2022/11/01 11:21:35;;;;;;;17.30;3.40;;;;;;;14.92;100.00;101196.00;5044435;28;20020;-83
2022/11/01 11:24:04;;;;;;;17.00;2.65;;;;;;;14.86;100.00;101196.94;5066794;28;20047;-82
2022/11/01 11:26:38;;;;;;;12.00;2.70;;;;;;;14.78;100.00;101198.78;5071790;28;20055;-82
2022/11/01 11:29:06;;;;;;;17.02;3.08;;;;;;;14.72;100.00;101212.97;5070262;28;20040;-82
2022/11/01 11:31:35;;;;;;;12.15;2.70;;;;;;;14.66;100.00;101205.06;5061970;28;20056;-82
2022/11/01 11:34:15;;;;;;;12.40;3.50;;;;;;;14.65;100.00;101213.94;5073466;28;20497;-83
2022/11/01 11:36:48;;;;;;;15.30;3.00;;;;;;;14.64;100.00;101211.28;5060600;28;20039;-82
2022/11/01 11:39:28;;;;;;;14.65;3.00;;;;;;;14.66;100.00;101210.38;5062633;28;20032;-83